Little Falls, NJ

01:06 PM EDT on Agost 03, 2015 (GMT -0400)
Lower Woodland Park | | Change Station
CLOSE
Current Station
Personal Weather Stations
Location: Woodland Park, NJ
Elevation: 140 ft
Nearby Weather Stations

Elev 140 ft 40.89 °N, 74.21 °W | Updated 6 seconds ago

Clar
Clar
92.3 °F
Feels Like 91 °F
N
4.0
vent Variadís vent from SSE
Gusts 12.0 mph

Auèi
High -- | Low -- °F
--% Chance of Precip.
Yesterday
High -- | Low -- °F
Precip. -- Dins
5:54 AM 8:10 PM
Waning Gibbous, 85% visible
Pression 29.82 Dins
Visibilitat 10.0 miles
Nivols Clar
Indèx de calor 91 °F
Punt de ròs 58 °F
Imor 32%
Rainfall 0.00 Dins
Snow Depth Not available.
UV 7.2 out of 12
Pollen 7.80 out of 12
Air Quality Not available.
Flu Activity Not available.
METAR KCDW 031653Z 21010G16KT 190V260 10SM CLR 31/16 A2981 RMK AO2 SLP097 T03110156

More Conditions Fewer Conditions

Pression 29.82 Dins
Visibilitat 10.0 miles
Nivols Clar
Indèx de calor 91 °F
Punt de ròs 58 °F
Imor 32%
Rainfall 0.00 Dins
Snow Depth Not available.
UV 7.2 out of 12
Pollen 7.80 out of 12
Air Quality Not available.
Flu Activity Not available.
METAR KCDW 031653Z 21010G16KT 190V260 10SM CLR 31/16 A2981 RMK AO2 SLP097 T03110156

More Conditions Fewer Conditions

10-Day Weather Forecast

×

Almanac

Astronomy

Aug. 03, 2015 Rise Set
Actual Time
Civil Twilight
Nautical Twilight
Astronomical Twilight
Luna
Length Of Visible Light
Length of Day
Tomorrow will be .
, % of the Moon is Illuminated

Today's Extremes

State Highs State Lows

Community

WunderPhotos

Upload Photos

1,843,676 photos uploaded!

WunderBlogs® & News

Nearby

Air Quality

  Air Quality AQ Index Pollutant
Not available.

Snow Depth

Station Depth Elevation

Earthquake Activity

Vila Distance Mag. Time & Date
Minimum magnitude displayed is 2.5.

Coastal Water Temperatures

Luòc Temperatura

Stations

Nearby Weather Stations

Station Location Temp Vent freg Punt de ròs Imor vent Precip. Elev Mes al jorn Type